Time;durP1;ratioP1;P1;durP2;ratioP2;P2;SDS_P1;SDS_P2;PMS_P1;PMS_P2;Temp;Humidity;BMP_temperature;BMP_pressure;BME280_temperature;BME280_humidity;BME280_pressure;Samples;Min_cycle;Max_cycle;Signal;HPM_P1;HPM_P2
2021/08/24 00:00:04;;;;;;;15.45;14.05;;;;;;;14.41;100;95718.8;;;;
2021/08/24 00:01:07;;;;;;;15.45;14.05;;;;;;;14.41;100;95718.8;;;;
2021/08/24 00:02:08;;;;;;;15.45;14.05;;;;;;;14.41;100;95718.8;;;;
2021/08/24 00:03:09;;;;;;;15.45;14.05;;;;;;;14.41;100;95718.8;;;;
2021/08/24 00:04:09;;;;;;;15.45;14.05;;;;;;;14.41;100;95718.8;;;;
2021/08/24 00:05:10;;;;;;;15.45;14.05;;;;;;;14.41;100;95718.8;;;;
2021/08/24 00:06:16;;;;;;;15.45;14.05;;;;;;;14.41;100;95718.8;;;;
2021/08/24 00:07:17;;;;;;;15.45;14.05;;;;;;;14.41;100;95718.8;;;;
2021/08/24 00:08:17;;;;;;;16.5;15;;;;;;;14.38;100;95716.56;;;;
2021/08/24 00:09:19;;;;;;;16.5;15;;;;;;;14.38;100;95716.56;;;;
2021/08/24 00:10:19;;;;;;;16.5;15;;;;;;;14.38;100;95716.56;;;;
2021/08/24 00:11:20;;;;;;;16.5;15;;;;;;;14.38;100;95716.56;;;;
2021/08/24 00:12:21;;;;;;;16.5;15;;;;;;;14.38;100;95716.56;;;;
2021/08/24 00:13:22;;;;;;;16.5;15;;;;;;;14.38;100;95716.56;;;;
2021/08/24 00:14:25;;;;;;;16.5;15;;;;;;;14.38;100;95716.56;;;;
2021/08/24 00:15:26;;;;;;;16.5;15;;;;;;;14.38;100;95716.56;;;;
2021/08/24 00:16:27;;;;;;;16.5;15;;;;;;;14.38;100;95716.56;;;;
2021/08/24 00:17:28;;;;;;;16.5;15;;;;;;;14.38;100;95716.56;;;;
2021/08/24 00:18:29;;;;;;;16.5;15;;;;;;;14.38;100;95716.56;;;;
2021/08/24 00:19:29;;;;;;;16.05;14.55;;;;;;;14.31;100;95713.2;;;;
2021/08/24 00:20:31;;;;;;;16.05;14.55;;;;;;;14.31;100;95713.2;;;;
2021/08/24 00:21:31;;;;;;;16.05;14.55;;;;;;;14.31;100;95713.2;;;;
2021/08/24 00:22:32;;;;;;;16.05;14.55;;;;;;;14.31;100;95713.2;;;;
2021/08/24 00:23:35;;;;;;;16.05;14.55;;;;;;;14.31;100;95713.2;;;;
2021/08/24 00:24:36;;;;;;;16.05;14.55;;;;;;;14.31;100;95713.2;;;;
2021/08/24 00:25:37;;;;;;;16.05;14.55;;;;;;;14.31;100;95713.2;;;;
2021/08/24 00:26:38;;;;;;;16.05;14.55;;;;;;;14.31;100;95713.2;;;;
2021/08/24 00:27:38;;;;;;;16.05;14.55;;;;;;;14.31;100;95713.2;;;;
2021/08/24 00:28:40;;;;;;;16.05;14.55;;;;;;;14.31;100;95713.2;;;;
2021/08/24 00:29:41;;;;;;;14.65;13.25;;;;;;;14.24;100;95713.76;;;;
2021/08/24 00:30:41;;;;;;;14.65;13.25;;;;;;;14.24;100;95713.76;;;;
2021/08/24 00:31:42;;;;;;;14.65;13.25;;;;;;;14.24;100;95713.76;;;;
2021/08/24 00:32:42;;;;;;;14.65;13.25;;;;;;;14.24;100;95713.76;;;;
2021/08/24 00:33:43;;;;;;;14.65;13.25;;;;;;;14.24;100;95713.76;;;;
2021/08/24 00:34:43;;;;;;;14.65;13.25;;;;;;;14.24;100;95713.76;;;;
2021/08/24 00:35:44;;;;;;;14.65;13.25;;;;;;;14.24;100;95713.76;;;;
2021/08/24 00:36:45;;;;;;;14.65;13.25;;;;;;;14.24;100;95713.76;;;;
2021/08/24 00:37:46;;;;;;;14.65;13.25;;;;;;;14.24;100;95713.76;;;;
2021/08/24 00:38:46;;;;;;;14.65;13.25;;;;;;;14.24;100;95713.76;;;;
2021/08/24 00:39:47;;;;;;;14.65;13.25;;;;;;;14.24;100;95713.76;;;;
2021/08/24 00:40:49;;;;;;;14.35;13.05;;;;;;;14.2;100;95713.13;;;;
2021/08/24 00:41:52;;;;;;;14.35;13.05;;;;;;;14.2;100;95713.13;;;;
2021/08/24 00:42:52;;;;;;;14.35;13.05;;;;;;;14.2;100;95713.13;;;;
2021/08/24 00:43:53;;;;;;;14.35;13.05;;;;;;;14.2;100;95713.13;;;;
2021/08/24 00:44:53;;;;;;;14.35;13.05;;;;;;;14.2;100;95713.13;;;;
2021/08/24 00:45:54;;;;;;;14.35;13.05;;;;;;;14.2;100;95713.13;;;;
2021/08/24 00:47:00;;;;;;;14.35;13.05;;;;;;;14.2;100;95713.13;;;;
2021/08/24 00:48:01;;;;;;;14.35;13.05;;;;;;;14.2;100;95713.13;;;;
2021/08/24 00:49:02;;;;;;;14.35;13.05;;;;;;;14.2;100;95713.13;;;;
2021/08/24 00:50:06;;;;;;;14.35;13.05;;;;;;;14.2;100;95713.13;;;;
2021/08/24 00:51:19;;;;;;;12.3;11.1;;;;;;;14.17;100;95720.42;;;;
2021/08/24 00:52:24;;;;;;;12.3;11.1;;;;;;;14.17;100;95720.42;;;;
2021/08/24 00:53:24;;;;;;;12.3;11.1;;;;;;;14.17;100;95720.42;;;;
2021/08/24 00:54:31;;;;;;;12.3;11.1;;;;;;;14.17;100;95720.42;;;;
2021/08/24 00:55:32;;;;;;;12.3;11.1;;;;;;;14.17;100;95720.42;;;;
2021/08/24 00:56:33;;;;;;;12.3;11.1;;;;;;;14.17;100;95720.42;;;;
2021/08/24 00:57:34;;;;;;;12.3;11.1;;;;;;;14.17;100;95720.42;;;;
2021/08/24 00:58:34;;;;;;;12.3;11.1;;;;;;;14.17;100;95720.42;;;;
2021/08/24 00:59:36;;;;;;;12.3;11.1;;;;;;;14.17;100;95720.42;;;;
2021/08/24 01:00:37;;;;;;;12.3;11.1;;;;;;;14.17;100;95720.42;;;;
2021/08/24 01:01:39;;;;;;;10.65;9.7;;;;;;;14.1;100;95715.7;;;;
2021/08/24 01:02:40;;;;;;;10.65;9.7;;;;;;;14.1;100;95715.7;;;;
2021/08/24 01:03:40;;;;;;;10.65;9.7;;;;;;;14.1;100;95715.7;;;;
2021/08/24 01:04:44;;;;;;;10.65;9.7;;;;;;;14.1;100;95715.7;;;;
2021/08/24 01:05:46;;;;;;;10.65;9.7;;;;;;;14.1;100;95715.7;;;;
2021/08/24 01:06:50;;;;;;;10.65;9.7;;;;;;;14.1;100;95715.7;;;;
2021/08/24 01:07:54;;;;;;;10.65;9.7;;;;;;;14.1;100;95715.7;;;;
2021/08/24 01:09:01;;;;;;;10.65;9.7;;;;;;;14.1;100;95715.7;;;;
2021/08/24 01:10:17;;;;;;;10.65;9.7;;;;;;;14.1;100;95715.7;;;;
2021/08/24 01:11:23;;;;;;;10.65;9.7;;;;;;;14.1;100;95715.7;;;;
2021/08/24 01:12:32;;;;;;;10;9.1;;;;;;;13.99;100;95711.17;;;;
2021/08/24 01:13:39;;;;;;;10;9.1;;;;;;;13.99;100;95711.17;;;;
2021/08/24 01:14:43;;;;;;;10;9.1;;;;;;;13.99;100;95711.17;;;;
2021/08/24 01:15:55;;;;;;;10;9.1;;;;;;;13.99;100;95711.17;;;;
2021/08/24 01:17:01;;;;;;;10;9.1;;;;;;;13.99;100;95711.17;;;;
2021/08/24 01:18:10;;;;;;;10;9.1;;;;;;;13.99;100;95711.17;;;;
2021/08/24 01:19:17;;;;;;;10;9.1;;;;;;;13.99;100;95711.17;;;;
2021/08/24 01:20:45;;;;;;;10;9.1;;;;;;;13.99;100;95711.17;;;;
2021/08/24 01:22:43;;;;;;;7.249999;6.649999;;;;;;;13.89;100;95709.09;;;;
2021/08/24 01:24:54;;;;;;;7.249999;6.649999;;;;;;;13.89;100;95709.09;;;;
2021/08/24 01:26:01;;;;;;;7.249999;6.649999;;;;;;;13.89;100;95709.09;;;;
2021/08/24 01:27:10;;;;;;;7.249999;6.649999;;;;;;;13.89;100;95709.09;;;;
2021/08/24 01:28:15;;;;;;;7.249999;6.649999;;;;;;;13.89;100;95709.09;;;;
2021/08/24 01:29:27;;;;;;;7.249999;6.649999;;;;;;;13.89;100;95709.09;;;;
2021/08/24 01:30:53;;;;;;;7.249999;6.649999;;;;;;;13.89;100;95709.09;;;;
2021/08/24 01:32:09;;;;;;;7.249999;6.649999;;;;;;;13.89;100;95709.09;;;;
2021/08/24 01:33:25;;;;;;;7.25;6.649999;;;;;;;13.9;100;95719.32;;;;
2021/08/24 01:34:31;;;;;;;7.25;6.649999;;;;;;;13.9;100;95719.32;;;;
2021/08/24 01:35:50;;;;;;;7.25;6.649999;;;;;;;13.9;100;95719.32;;;;
2021/08/24 01:37:08;;;;;;;7.25;6.649999;;;;;;;13.9;100;95719.32;;;;
2021/08/24 01:38:16;;;;;;;7.25;6.649999;;;;;;;13.9;100;95719.32;;;;
2021/08/24 01:39:20;;;;;;;7.25;6.649999;;;;;;;13.9;100;95719.32;;;;
2021/08/24 01:40:27;;;;;;;7.25;6.649999;;;;;;;13.9;100;95719.32;;;;
2021/08/24 01:41:36;;;;;;;7.25;6.649999;;;;;;;13.9;100;95719.32;;;;
2021/08/24 01:42:53;;;;;;;7.25;6.649999;;;;;;;13.9;100;95719.32;;;;
2021/08/24 01:43:53;;;;;;;7.25;6.649999;;;;;;;13.9;100;95719.32;;;;
2021/08/24 01:45:00;;;;;;;9.55;8.75;;;;;;;13.85;100;95714.72;;;;
2021/08/24 01:46:08;;;;;;;9.55;8.75;;;;;;;13.85;100;95714.72;;;;
2021/08/24 01:47:21;;;;;;;9.55;8.75;;;;;;;13.85;100;95714.72;;;;
2021/08/24 01:48:29;;;;;;;9.55;8.75;;;;;;;13.85;100;95714.72;;;;
2021/08/24 01:49:36;;;;;;;9.55;8.75;;;;;;;13.85;100;95714.72;;;;
2021/08/24 01:50:42;;;;;;;9.55;8.75;;;;;;;13.85;100;95714.72;;;;
2021/08/24 01:51:48;;;;;;;9.55;8.75;;;;;;;13.85;100;95714.72;;;;
2021/08/24 01:52:53;;;;;;;9.55;8.75;;;;;;;13.85;100;95714.72;;;;
2021/08/24 01:53:58;;;;;;;9.55;8.75;;;;;;;13.85;100;95714.72;;;;
2021/08/24 01:55:03;;;;;;;6.849999;6.25;;;;;;;13.74;100;95717.38;;;;
2021/08/24 01:56:10;;;;;;;6.849999;6.25;;;;;;;13.74;100;95717.38;;;;
2021/08/24 01:57:17;;;;;;;6.849999;6.25;;;;;;;13.74;100;95717.38;;;;
2021/08/24 01:58:20;;;;;;;6.849999;6.25;;;;;;;13.74;100;95717.38;;;;
2021/08/24 01:59:26;;;;;;;6.849999;6.25;;;;;;;13.74;100;95717.38;;;;
2021/08/24 02:00:31;;;;;;;6.849999;6.25;;;;;;;13.74;100;95717.38;;;;
2021/08/24 02:01:35;;;;;;;6.849999;6.25;;;;;;;13.74;100;95717.38;;;;
2021/08/24 02:02:42;;;;;;;6.849999;6.25;;;;;;;13.74;100;95717.38;;;;
2021/08/24 02:03:49;;;;;;;6.849999;6.25;;;;;;;13.74;100;95717.38;;;;
2021/08/24 02:04:55;;;;;;;6.849999;6.25;;;;;;;13.74;100;95717.38;;;;
2021/08/24 02:06:11;;;;;;;6.249999;5.749999;;;;;;;13.68;100;95713.06;;;;
2021/08/24 02:07:17;;;;;;;6.249999;5.749999;;;;;;;13.68;100;95713.06;;;;
2021/08/24 02:08:20;;;;;;;6.249999;5.749999;;;;;;;13.68;100;95713.06;;;;
2021/08/24 02:09:24;;;;;;;6.249999;5.749999;;;;;;;13.68;100;95713.06;;;;
2021/08/24 02:10:31;;;;;;;6.249999;5.749999;;;;;;;13.68;100;95713.06;;;;
2021/08/24 02:11:33;;;;;;;6.249999;5.749999;;;;;;;13.68;100;95713.06;;;;
2021/08/24 02:12:35;;;;;;;6.249999;5.749999;;;;;;;13.68;100;95713.06;;;;
2021/08/24 02:13:39;;;;;;;6.249999;5.749999;;;;;;;13.68;100;95713.06;;;;
2021/08/24 02:14:44;;;;;;;6.249999;5.749999;;;;;;;13.68;100;95713.06;;;;
2021/08/24 02:15:46;;;;;;;6.249999;5.749999;;;;;;;13.68;100;95713.06;;;;
2021/08/24 02:16:51;;;;;;;5.95;5.45;;;;;;;13.63;100;95717.47;;;;
2021/08/24 02:17:52;;;;;;;5.95;5.45;;;;;;;13.63;100;95717.47;;;;
2021/08/24 02:18:52;;;;;;;5.95;5.45;;;;;;;13.63;100;95717.47;;;;
2021/08/24 02:19:58;;;;;;;5.95;5.45;;;;;;;13.63;100;95717.47;;;;
2021/08/24 02:21:04;;;;;;;5.95;5.45;;;;;;;13.63;100;95717.47;;;;
2021/08/24 02:22:08;;;;;;;5.95;5.45;;;;;;;13.63;100;95717.47;;;;
2021/08/24 02:23:14;;;;;;;5.95;5.45;;;;;;;13.63;100;95717.47;;;;
2021/08/24 02:24:19;;;;;;;5.95;5.45;;;;;;;13.63;100;95717.47;;;;
2021/08/24 02:25:25;;;;;;;5.95;5.45;;;;;;;13.63;100;95717.47;;;;
2021/08/24 02:26:30;;;;;;;5.95;5.45;;;;;;;13.63;100;95717.47;;;;
2021/08/24 02:27:32;;;;;;;5.8;5.299999;;;;;;;13.58;100;95713.17;;;;
2021/08/24 02:28:38;;;;;;;5.8;5.299999;;;;;;;13.58;100;95713.17;;;;
2021/08/24 02:29:42;;;;;;;5.8;5.299999;;;;;;;13.58;100;95713.17;;;;
2021/08/24 02:30:42;;;;;;;5.8;5.299999;;;;;;;13.58;100;95713.17;;;;
2021/08/24 02:31:49;;;;;;;5.8;5.299999;;;;;;;13.58;100;95713.17;;;;
2021/08/24 02:32:56;;;;;;;5.8;5.299999;;;;;;;13.58;100;95713.17;;;;
2021/08/24 02:33:57;;;;;;;5.8;5.299999;;;;;;;13.58;100;95713.17;;;;
2021/08/24 02:35:04;;;;;;;5.8;5.299999;;;;;;;13.58;100;95713.17;;;;
2021/08/24 02:36:12;;;;;;;5.8;5.299999;;;;;;;13.58;100;95713.17;;;;
2021/08/24 02:37:14;;;;;;;5.8;5.299999;;;;;;;13.58;100;95713.17;;;;
2021/08/24 02:38:20;;;;;;;6.400001;5.349999;;;;;;;13.53;100;95715.38;;;;
2021/08/24 02:39:23;;;;;;;6.400001;5.349999;;;;;;;13.53;100;95715.38;;;;
2021/08/24 02:40:32;;;;;;;6.400001;5.349999;;;;;;;13.53;100;95715.38;;;;
2021/08/24 02:41:40;;;;;;;6.400001;5.349999;;;;;;;13.53;100;95715.38;;;;
2021/08/24 02:42:51;;;;;;;6.400001;5.349999;;;;;;;13.53;100;95715.38;;;;
2021/08/24 02:44:00;;;;;;;6.400001;5.349999;;;;;;;13.53;100;95715.38;;;;
2021/08/24 02:45:09;;;;;;;6.400001;5.349999;;;;;;;13.53;100;95715.38;;;;
2021/08/24 02:46:13;;;;;;;6.400001;5.349999;;;;;;;13.53;100;95715.38;;;;
2021/08/24 02:47:20;;;;;;;6.400001;5.349999;;;;;;;13.53;100;95715.38;;;;
2021/08/24 02:48:22;;;;;;;5.7;5.15;;;;;;;13.47;100;95709.17;;;;
2021/08/24 02:49:24;;;;;;;5.7;5.15;;;;;;;13.47;100;95709.17;;;;
2021/08/24 02:50:28;;;;;;;5.7;5.15;;;;;;;13.47;100;95709.17;;;;
2021/08/24 02:51:29;;;;;;;5.7;5.15;;;;;;;13.47;100;95709.17;;;;
2021/08/24 02:52:30;;;;;;;5.7;5.15;;;;;;;13.47;100;95709.17;;;;
2021/08/24 02:53:33;;;;;;;5.7;5.15;;;;;;;13.47;100;95709.17;;;;
2021/08/24 02:54:36;;;;;;;5.7;5.15;;;;;;;13.47;100;95709.17;;;;
2021/08/24 02:55:40;;;;;;;5.7;5.15;;;;;;;13.47;100;95709.17;;;;
2021/08/24 02:56:40;;;;;;;5.7;5.15;;;;;;;13.47;100;95709.17;;;;
2021/08/24 02:57:41;;;;;;;5.7;5.15;;;;;;;13.47;100;95709.17;;;;
2021/08/24 02:58:42;;;;;;;5.7;5.15;;;;;;;13.47;100;95709.17;;;;
2021/08/24 02:59:42;;;;;;;5.849999;5.15;;;;;;;13.48;100;95701.73;;;;
2021/08/24 03:00:45;;;;;;;5.849999;5.15;;;;;;;13.48;100;95701.73;;;;
2021/08/24 03:01:46;;;;;;;5.849999;5.15;;;;;;;13.48;100;95701.73;;;;
2021/08/24 03:02:46;;;;;;;5.849999;5.15;;;;;;;13.48;100;95701.73;;;;
2021/08/24 03:03:47;;;;;;;5.849999;5.15;;;;;;;13.48;100;95701.73;;;;
2021/08/24 03:04:48;;;;;;;5.849999;5.15;;;;;;;13.48;100;95701.73;;;;
2021/08/24 03:05:48;;;;;;;5.849999;5.15;;;;;;;13.48;100;95701.73;;;;
2021/08/24 03:06:49;;;;;;;5.849999;5.15;;;;;;;13.48;100;95701.73;;;;
2021/08/24 03:07:53;;;;;;;5.849999;5.15;;;;;;;13.48;100;95701.73;;;;
2021/08/24 03:08:54;;;;;;;5.849999;5.15;;;;;;;13.48;100;95701.73;;;;
2021/08/24 03:09:55;;;;;;;6.500001;5.9;;;;;;;13.41;100;95707.42;;;;
2021/08/24 03:10:59;;;;;;;6.500001;5.9;;;;;;;13.41;100;95707.42;;;;
2021/08/24 03:12:01;;;;;;;6.500001;5.9;;;;;;;13.41;100;95707.42;;;;
2021/08/24 03:13:11;;;;;;;6.500001;5.9;;;;;;;13.41;100;95707.42;;;;
2021/08/24 03:14:21;;;;;;;6.500001;5.9;;;;;;;13.41;100;95707.42;;;;
2021/08/24 03:15:27;;;;;;;6.500001;5.9;;;;;;;13.41;100;95707.42;;;;
2021/08/24 03:16:36;;;;;;;6.500001;5.9;;;;;;;13.41;100;95707.42;;;;
2021/08/24 03:17:42;;;;;;;6.500001;5.9;;;;;;;13.41;100;95707.42;;;;
2021/08/24 03:18:48;;;;;;;6.500001;5.9;;;;;;;13.41;100;95707.42;;;;
2021/08/24 03:19:51;;;;;;;6.500001;5.9;;;;;;;13.41;100;95707.42;;;;
2021/08/24 03:20:55;;;;;;;6;5.5;;;;;;;13.43;100;95708.01;;;;
2021/08/24 03:21:59;;;;;;;6;5.5;;;;;;;13.43;100;95708.01;;;;
2021/08/24 03:23:03;;;;;;;6;5.5;;;;;;;13.43;100;95708.01;;;;
2021/08/24 03:24:05;;;;;;;6;5.5;;;;;;;13.43;100;95708.01;;;;
2021/08/24 03:25:10;;;;;;;6;5.5;;;;;;;13.43;100;95708.01;;;;
2021/08/24 03:26:12;;;;;;;6;5.5;;;;;;;13.43;100;95708.01;;;;
2021/08/24 03:27:18;;;;;;;6;5.5;;;;;;;13.43;100;95708.01;;;;
2021/08/24 03:28:19;;;;;;;6;5.5;;;;;;;13.43;100;95708.01;;;;
2021/08/24 03:29:23;;;;;;;6;5.5;;;;;;;13.43;100;95708.01;;;;
2021/08/24 03:30:23;;;;;;;6;5.5;;;;;;;13.43;100;95708.01;;;;
2021/08/24 03:31:26;;;;;;;6.65;5.299999;;;;;;;13.36;100;95704.1;;;;
2021/08/24 03:32:27;;;;;;;6.65;5.299999;;;;;;;13.36;100;95704.1;;;;
2021/08/24 03:33:28;;;;;;;6.65;5.299999;;;;;;;13.36;100;95704.1;;;;
2021/08/24 03:34:28;;;;;;;6.65;5.299999;;;;;;;13.36;100;95704.1;;;;
2021/08/24 03:35:29;;;;;;;6.65;5.299999;;;;;;;13.36;100;95704.1;;;;
2021/08/24 03:36:30;;;;;;;6.65;5.299999;;;;;;;13.36;100;95704.1;;;;
2021/08/24 03:37:30;;;;;;;6.65;5.299999;;;;;;;13.36;100;95704.1;;;;
2021/08/24 03:38:31;;;;;;;6.65;5.299999;;;;;;;13.36;100;95704.1;;;;
2021/08/24 03:39:31;;;;;;;6.65;5.299999;;;;;;;13.36;100;95704.1;;;;
2021/08/24 03:40:32;;;;;;;6.65;5.299999;;;;;;;13.36;100;95704.1;;;;
2021/08/24 03:41:33;;;;;;;5.349999;4.849999;;;;;;;13.32;100;95709.3;;;;
2021/08/24 03:42:33;;;;;;;5.349999;4.849999;;;;;;;13.32;100;95709.3;;;;
2021/08/24 03:43:34;;;;;;;5.349999;4.849999;;;;;;;13.32;100;95709.3;;;;
2021/08/24 03:44:36;;;;;;;5.349999;4.849999;;;;;;;13.32;100;95709.3;;;;
2021/08/24 03:45:36;;;;;;;5.349999;4.849999;;;;;;;13.32;100;95709.3;;;;
2021/08/24 03:46:37;;;;;;;5.349999;4.849999;;;;;;;13.32;100;95709.3;;;;
2021/08/24 03:47:38;;;;;;;5.349999;4.849999;;;;;;;13.32;100;95709.3;;;;
2021/08/24 03:48:38;;;;;;;5.349999;4.849999;;;;;;;13.32;100;95709.3;;;;
2021/08/24 03:49:39;;;;;;;5.349999;4.849999;;;;;;;13.32;100;95709.3;;;;
2021/08/24 03:50:39;;;;;;;5.349999;4.849999;;;;;;;13.32;100;95709.3;;;;
2021/08/24 03:51:40;;;;;;;5.349999;4.849999;;;;;;;13.32;100;95709.3;;;;
2021/08/24 03:52:40;;;;;;;5.599999;4.85;;;;;;;13.28;100;95718.14;;;;
2021/08/24 03:53:41;;;;;;;5.599999;4.85;;;;;;;13.28;100;95718.14;;;;
2021/08/24 03:54:41;;;;;;;5.599999;4.85;;;;;;;13.28;100;95718.14;;;;
2021/08/24 03:55:42;;;;;;;5.599999;4.85;;;;;;;13.28;100;95718.14;;;;
2021/08/24 03:56:42;;;;;;;5.599999;4.85;;;;;;;13.28;100;95718.14;;;;
2021/08/24 03:57:43;;;;;;;5.599999;4.85;;;;;;;13.28;100;95718.14;;;;
2021/08/24 03:58:44;;;;;;;5.599999;4.85;;;;;;;13.28;100;95718.14;;;;
2021/08/24 03:59:45;;;;;;;5.599999;4.85;;;;;;;13.28;100;95718.14;;;;
2021/08/24 04:00:45;;;;;;;5.599999;4.85;;;;;;;13.28;100;95718.14;;;;
2021/08/24 04:01:47;;;;;;;5.599999;4.85;;;;;;;13.28;100;95718.14;;;;
2021/08/24 04:02:48;;;;;;;4.849999;4.4;;;;;;;13.23;100;95731.61;;;;
2021/08/24 04:03:49;;;;;;;4.849999;4.4;;;;;;;13.23;100;95731.61;;;;
2021/08/24 04:04:49;;;;;;;4.849999;4.4;;;;;;;13.23;100;95731.61;;;;
2021/08/24 04:05:51;;;;;;;4.849999;4.4;;;;;;;13.23;100;95731.61;;;;
2021/08/24 04:06:57;;;;;;;4.849999;4.4;;;;;;;13.23;100;95731.61;;;;
2021/08/24 04:07:58;;;;;;;4.849999;4.4;;;;;;;13.23;100;95731.61;;;;
2021/08/24 04:08:59;;;;;;;4.849999;4.4;;;;;;;13.23;100;95731.61;;;;
2021/08/24 04:09:59;;;;;;;4.849999;4.4;;;;;;;13.23;100;95731.61;;;;
2021/08/24 04:11:00;;;;;;;4.849999;4.4;;;;;;;13.23;100;95731.61;;;;
2021/08/24 04:12:02;;;;;;;4.849999;4.4;;;;;;;13.23;100;95731.61;;;;
2021/08/24 04:13:03;;;;;;;4.849999;4.4;;;;;;;13.23;100;95731.61;;;;
2021/08/24 04:14:04;;;;;;;7.6;5.699999;;;;;;;13.17;100;95726.61;;;;
2021/08/24 04:15:06;;;;;;;7.6;5.699999;;;;;;;13.17;100;95726.61;;;;
2021/08/24 04:16:08;;;;;;;7.6;5.699999;;;;;;;13.17;100;95726.61;;;;
2021/08/24 04:17:12;;;;;;;7.6;5.699999;;;;;;;13.17;100;95726.61;;;;
2021/08/24 04:18:13;;;;;;;7.6;5.699999;;;;;;;13.17;100;95726.61;;;;
2021/08/24 04:19:13;;;;;;;7.6;5.699999;;;;;;;13.17;100;95726.61;;;;
2021/08/24 04:20:14;;;;;;;7.6;5.699999;;;;;;;13.17;100;95726.61;;;;
2021/08/24 04:21:16;;;;;;;7.6;5.699999;;;;;;;13.17;100;95726.61;;;;
2021/08/24 04:22:18;;;;;;;7.6;5.699999;;;;;;;13.17;100;95726.61;;;;
2021/08/24 04:23:23;;;;;;;7.6;5.699999;;;;;;;13.17;100;95726.61;;;;
2021/08/24 04:24:23;;;;;;;6.650001;5.150001;;;;;;;13.1;100;95747.09;;;;
2021/08/24 04:25:24;;;;;;;6.650001;5.150001;;;;;;;13.1;100;95747.09;;;;
2021/08/24 04:26:26;;;;;;;6.650001;5.150001;;;;;;;13.1;100;95747.09;;;;
2021/08/24 04:27:27;;;;;;;6.650001;5.150001;;;;;;;13.1;100;95747.09;;;;
2021/08/24 04:28:28;;;;;;;6.650001;5.150001;;;;;;;13.1;100;95747.09;;;;
2021/08/24 04:29:28;;;;;;;6.650001;5.150001;;;;;;;13.1;100;95747.09;;;;
2021/08/24 04:30:29;;;;;;;6.650001;5.150001;;;;;;;13.1;100;95747.09;;;;
2021/08/24 04:31:30;;;;;;;6.650001;5.150001;;;;;;;13.1;100;95747.09;;;;
2021/08/24 04:32:33;;;;;;;6.650001;5.150001;;;;;;;13.1;100;95747.09;;;;
2021/08/24 04:33:36;;;;;;;6.650001;5.150001;;;;;;;13.1;100;95747.09;;;;
2021/08/24 04:34:37;;;;;;;6.650001;5.150001;;;;;;;13.1;100;95747.09;;;;
2021/08/24 04:35:37;;;;;;;6.799999;6.1;;;;;;;13.08;100;95741.19;;;;
2021/08/24 04:36:38;;;;;;;6.799999;6.1;;;;;;;13.08;100;95741.19;;;;
2021/08/24 04:37:38;;;;;;;6.799999;6.1;;;;;;;13.08;100;95741.19;;;;
2021/08/24 04:38:39;;;;;;;6.799999;6.1;;;;;;;13.08;100;95741.19;;;;
2021/08/24 04:39:40;;;;;;;6.799999;6.1;;;;;;;13.08;100;95741.19;;;;
2021/08/24 04:40:40;;;;;;;6.799999;6.1;;;;;;;13.08;100;95741.19;;;;
2021/08/24 04:41:41;;;;;;;6.799999;6.1;;;;;;;13.08;100;95741.19;;;;
2021/08/24 04:42:41;;;;;;;6.799999;6.1;;;;;;;13.08;100;95741.19;;;;
2021/08/24 04:43:42;;;;;;;6.799999;6.1;;;;;;;13.08;100;95741.19;;;;
2021/08/24 04:44:42;;;;;;;6.799999;6.1;;;;;;;13.08;100;95741.19;;;;
2021/08/24 04:45:43;;;;;;;8.3;6.649999;;;;;;;13.04;100;95745.34;;;;
2021/08/24 04:46:43;;;;;;;8.3;6.649999;;;;;;;13.04;100;95745.34;;;;
2021/08/24 04:47:44;;;;;;;8.3;6.649999;;;;;;;13.04;100;95745.34;;;;
2021/08/24 04:48:45;;;;;;;8.3;6.649999;;;;;;;13.04;100;95745.34;;;;
2021/08/24 04:49:45;;;;;;;8.3;6.649999;;;;;;;13.04;100;95745.34;;;;
2021/08/24 04:50:46;;;;;;;8.3;6.649999;;;;;;;13.04;100;95745.34;;;;
2021/08/24 04:51:46;;;;;;;8.3;6.649999;;;;;;;13.04;100;95745.34;;;;
2021/08/24 04:52:47;;;;;;;8.3;6.649999;;;;;;;13.04;100;95745.34;;;;
2021/08/24 04:53:47;;;;;;;8.3;6.649999;;;;;;;13.04;100;95745.34;;;;
2021/08/24 04:54:48;;;;;;;8.3;6.649999;;;;;;;13.04;100;95745.34;;;;
2021/08/24 04:55:49;;;;;;;8.3;6.649999;;;;;;;13.04;100;95745.34;;;;
2021/08/24 04:56:50;;;;;;;9.200001;6.95;;;;;;;13.07;100;95756.66;;;;
2021/08/24 04:57:50;;;;;;;9.200001;6.95;;;;;;;13.07;100;95756.66;;;;
2021/08/24 04:58:51;;;;;;;9.200001;6.95;;;;;;;13.07;100;95756.66;;;;
2021/08/24 04:59:51;;;;;;;9.200001;6.95;;;;;;;13.07;100;95756.66;;;;
2021/08/24 05:00:52;;;;;;;9.200001;6.95;;;;;;;13.07;100;95756.66;;;;
2021/08/24 05:01:53;;;;;;;9.200001;6.95;;;;;;;13.07;100;95756.66;;;;
2021/08/24 05:02:53;;;;;;;9.200001;6.95;;;;;;;13.07;100;95756.66;;;;
2021/08/24 05:03:54;;;;;;;9.200001;6.95;;;;;;;13.07;100;95756.66;;;;
2021/08/24 05:04:54;;;;;;;9.200001;6.95;;;;;;;13.07;100;95756.66;;;;
2021/08/24 05:05:55;;;;;;;9.200001;6.95;;;;;;;13.07;100;95756.66;;;;
2021/08/24 05:06:55;;;;;;;8.599999;6.799999;;;;;;;13.05;100;95757.43;;;;
2021/08/24 05:07:55;;;;;;;8.599999;6.799999;;;;;;;13.05;100;95757.43;;;;
2021/08/24 05:08:56;;;;;;;8.599999;6.799999;;;;;;;13.05;100;95757.43;;;;
2021/08/24 05:09:57;;;;;;;8.599999;6.799999;;;;;;;13.05;100;95757.43;;;;
2021/08/24 05:10:57;;;;;;;8.599999;6.799999;;;;;;;13.05;100;95757.43;;;;
2021/08/24 05:11:58;;;;;;;8.599999;6.799999;;;;;;;13.05;100;95757.43;;;;
2021/08/24 05:13:00;;;;;;;8.599999;6.799999;;;;;;;13.05;100;95757.43;;;;
2021/08/24 05:14:00;;;;;;;8.599999;6.799999;;;;;;;13.05;100;95757.43;;;;
2021/08/24 05:15:01;;;;;;;8.599999;6.799999;;;;;;;13.05;100;95757.43;;;;
2021/08/24 05:16:02;;;;;;;8.599999;6.799999;;;;;;;13.05;100;95757.43;;;;
2021/08/24 05:17:06;;;;;;;8.599999;6.799999;;;;;;;13.05;100;95757.43;;;;
2021/08/24 05:18:07;;;;;;;9.700002;7.399999;;;;;;;13.07;100;95762.61;;;;
2021/08/24 05:19:08;;;;;;;9.700002;7.399999;;;;;;;13.07;100;95762.61;;;;
2021/08/24 05:20:08;;;;;;;9.700002;7.399999;;;;;;;13.07;100;95762.61;;;;
2021/08/24 05:21:10;;;;;;;9.700002;7.399999;;;;;;;13.07;100;95762.61;;;;
2021/08/24 05:22:12;;;;;;;9.700002;7.399999;;;;;;;13.07;100;95762.61;;;;
2021/08/24 05:23:13;;;;;;;9.700002;7.399999;;;;;;;13.07;100;95762.61;;;;
2021/08/24 05:24:13;;;;;;;9.700002;7.399999;;;;;;;13.07;100;95762.61;;;;
2021/08/24 05:25:14;;;;;;;9.700002;7.399999;;;;;;;13.07;100;95762.61;;;;
2021/08/24 05:26:19;;;;;;;9.700002;7.399999;;;;;;;13.07;100;95762.61;;;;
2021/08/24 05:27:21;;;;;;;9.700002;7.399999;;;;;;;13.07;100;95762.61;;;;
2021/08/24 05:28:22;;;;;;;9.500001;8.500001;;;;;;;13.11;100;95768.27;;;;
2021/08/24 05:29:23;;;;;;;9.500001;8.500001;;;;;;;13.11;100;95768.27;;;;
2021/08/24 05:30:24;;;;;;;9.500001;8.500001;;;;;;;13.11;100;95768.27;;;;
2021/08/24 05:31:26;;;;;;;9.500001;8.500001;;;;;;;13.11;100;95768.27;;;;
2021/08/24 05:32:26;;;;;;;9.500001;8.500001;;;;;;;13.11;100;95768.27;;;;
2021/08/24 05:33:27;;;;;;;9.500001;8.500001;;;;;;;13.11;100;95768.27;;;;
2021/08/24 05:34:27;;;;;;;9.500001;8.500001;;;;;;;13.11;100;95768.27;;;;
2021/08/24 05:35:28;;;;;;;9.500001;8.500001;;;;;;;13.11;100;95768.27;;;;
2021/08/24 05:36:28;;;;;;;9.500001;8.500001;;;;;;;13.11;100;95768.27;;;;
2021/08/24 05:37:29;;;;;;;9.500001;8.500001;;;;;;;13.11;100;95768.27;;;;
2021/08/24 05:38:30;;;;;;;9.500001;8.500001;;;;;;;13.11;100;95768.27;;;;
2021/08/24 05:39:32;;;;;;;10.15;8.250001;;;;;;;13.18;100;95766.77;;;;
2021/08/24 05:40:34;;;;;;;10.15;8.250001;;;;;;;13.18;100;95766.77;;;;
2021/08/24 05:41:34;;;;;;;10.15;8.250001;;;;;;;13.18;100;95766.77;;;;
2021/08/24 05:42:37;;;;;;;10.15;8.250001;;;;;;;13.18;100;95766.77;;;;
2021/08/24 05:43:38;;;;;;;10.15;8.250001;;;;;;;13.18;100;95766.77;;;;
2021/08/24 05:44:38;;;;;;;10.15;8.250001;;;;;;;13.18;100;95766.77;;;;
2021/08/24 05:45:39;;;;;;;10.15;8.250001;;;;;;;13.18;100;95766.77;;;;
2021/08/24 05:46:39;;;;;;;10.15;8.250001;;;;;;;13.18;100;95766.77;;;;
2021/08/24 05:47:40;;;;;;;10.15;8.250001;;;;;;;13.18;100;95766.77;;;;
2021/08/24 05:48:40;;;;;;;10.15;8.250001;;;;;;;13.18;100;95766.77;;;;
2021/08/24 05:49:42;;;;;;;12.65;9.400001;;;;;;;13.22;100;95769.7;;;;
2021/08/24 05:50:42;;;;;;;12.65;9.400001;;;;;;;13.22;100;95769.7;;;;
2021/08/24 05:51:43;;;;;;;12.65;9.400001;;;;;;;13.22;100;95769.7;;;;
2021/08/24 05:52:44;;;;;;;12.65;9.400001;;;;;;;13.22;100;95769.7;;;;
2021/08/24 05:53:44;;;;;;;12.65;9.400001;;;;;;;13.22;100;95769.7;;;;
2021/08/24 05:54:47;;;;;;;12.65;9.400001;;;;;;;13.22;100;95769.7;;;;
2021/08/24 05:55:47;;;;;;;12.65;9.400001;;;;;;;13.22;100;95769.7;;;;
2021/08/24 05:56:49;;;;;;;12.65;9.400001;;;;;;;13.22;100;95769.7;;;;
2021/08/24 05:57:50;;;;;;;12.65;9.400001;;;;;;;13.22;100;95769.7;;;;
2021/08/24 05:58:51;;;;;;;12.65;9.400001;;;;;;;13.22;100;95769.7;;;;
2021/08/24 05:59:52;;;;;;;12.65;9.400001;;;;;;;13.22;100;95769.7;;;;
2021/08/24 06:00:52;;;;;;;12.3;10.2;;;;;;;13.25;100;95780.9;;;;
2021/08/24 06:01:53;;;;;;;12.3;10.2;;;;;;;13.25;100;95780.9;;;;
2021/08/24 06:02:53;;;;;;;12.3;10.2;;;;;;;13.25;100;95780.9;;;;
2021/08/24 06:03:54;;;;;;;12.3;10.2;;;;;;;13.25;100;95780.9;;;;
2021/08/24 06:04:55;;;;;;;12.3;10.2;;;;;;;13.25;100;95780.9;;;;
2021/08/24 06:05:55;;;;;;;12.3;10.2;;;;;;;13.25;100;95780.9;;;;
2021/08/24 06:06:56;;;;;;;12.3;10.2;;;;;;;13.25;100;95780.9;;;;